APG133 RCKH-RPLL
Flight info
| Callsign | APG133 |
|---|---|
| Flight time | 1h 26m |
| Altitude | 36000 |
| Route | HCN2A HCN M646 SANRO/N0455F390 W4 NABAL NABAL7R |
| Aircraft | A320/M-SDE3FGHIRWY/LB1 |
Departure
| Time | 2026-04-16 07:17 |
|---|---|
| Airport | Kaohsiung International Airport (RCKH) |
Arrival
| Time | 2026-04-16 08:43 |
|---|---|
| Airport | Ninoy Aquino International Airport (RPLL) |
| Time | Latitude | Longitude | Altitude | Speed | Heading |
|---|---|---|---|---|---|
| 2026-04-16 07:11 | 22.57304 | 120.34063 | 29 ft | 4 kts | 38° |
| 2026-04-16 07:11 | 22.57289 | 120.34055 | 29 ft | 0 kts | 1° |
| 2026-04-16 07:14 | 22.57317 | 120.34055 | 29 ft | 9 kts | 1° |
| 2026-04-16 07:14 | 22.57381 | 120.34050 | 29 ft | 9 kts | 336° |
| 2026-04-16 07:14 | 22.57411 | 120.33985 | 29 ft | 11 kts | 272° |
| 2026-04-16 07:14 | 22.57418 | 120.33889 | 28 ft | 14 kts | 274° |
| 2026-04-16 07:15 | 22.57421 | 120.33776 | 28 ft | 15 kts | 269° |
| 2026-04-16 07:15 | 22.57438 | 120.33681 | 27 ft | 13 kts | 306° |
| 2026-04-16 07:15 | 22.57507 | 120.33610 | 27 ft | 15 kts | 317° |
| 2026-04-16 07:15 | 22.57591 | 120.33527 | 26 ft | 17 kts | 319° |
| 2026-04-16 07:16 | 22.57704 | 120.33505 | 28 ft | 18 kts | 6° |
| 2026-04-16 07:16 | 22.57754 | 120.33557 | 26 ft | 10 kts | 92° |
| 2026-04-16 07:16 | 22.57749 | 120.33711 | 27 ft | 51 kts | 92° |
| 2026-04-16 07:16 | 22.57730 | 120.34364 | 31 ft | 121 kts | 92° |
| 2026-04-16 07:17 | 22.57695 | 120.35492 | 42 ft | 175 kts | 91° |
| 2026-04-16 07:17 | 22.57665 | 120.36799 | 727 ft | 173 kts | 90° |
| 2026-04-16 07:17 | 22.57467 | 120.38105 | 1490 ft | 186 kts | 118° |
| 2026-04-16 07:17 | 22.56476 | 120.39053 | 1901 ft | 202 kts | 163° |
| 2026-04-16 07:18 | 22.55057 | 120.39149 | 2405 ft | 214 kts | 199° |
| 2026-04-16 07:18 | 22.53796 | 120.38279 | 3098 ft | 219 kts | 222° |
| 2026-04-16 07:18 | 22.52655 | 120.37159 | 3871 ft | 224 kts | 222° |
| 2026-04-16 07:18 | 22.51408 | 120.36111 | 4407 ft | 242 kts | 205° |
| 2026-04-16 07:19 | 22.49693 | 120.35769 | 4798 ft | 266 kts | 172° |
| 2026-04-16 07:19 | 22.47845 | 120.36220 | 5455 ft | 277 kts | 165° |
| 2026-04-16 07:19 | 22.45954 | 120.36747 | 6262 ft | 284 kts | 165° |
| 2026-04-16 07:19 | 22.44011 | 120.37289 | 7010 ft | 292 kts | 165° |
| 2026-04-16 07:20 | 22.42030 | 120.37836 | 7841 ft | 296 kts | 166° |
| 2026-04-16 07:20 | 22.40021 | 120.38387 | 8691 ft | 300 kts | 166° |
| 2026-04-16 07:20 | 22.37992 | 120.38941 | 9532 ft | 303 kts | 166° |
| 2026-04-16 07:20 | 22.35930 | 120.39500 | 10204 ft | 312 kts | 166° |
| 2026-04-16 07:21 | 22.33745 | 120.40087 | 10442 ft | 335 kts | 167° |
| 2026-04-16 07:21 | 22.31436 | 120.40705 | 10684 ft | 356 kts | 167° |
| 2026-04-16 07:21 | 22.29006 | 120.41355 | 11252 ft | 363 kts | 167° |
| 2026-04-16 07:21 | 22.26539 | 120.42018 | 11925 ft | 368 kts | 167° |
| 2026-04-16 07:22 | 22.24054 | 120.42689 | 12649 ft | 370 kts | 167° |
| 2026-04-16 07:22 | 22.21546 | 120.43367 | 13369 ft | 373 kts | 167° |
| 2026-04-16 07:22 | 22.19023 | 120.44047 | 14024 ft | 375 kts | 168° |
| 2026-04-16 07:22 | 22.16477 | 120.44733 | 14620 ft | 378 kts | 167° |
| 2026-04-16 07:23 | 22.13912 | 120.45425 | 15197 ft | 382 kts | 167° |
| 2026-04-16 07:23 | 22.11356 | 120.46116 | 15766 ft | 386 kts | 168° |
| 2026-04-16 07:23 | 22.08743 | 120.46820 | 16335 ft | 389 kts | 168° |
| 2026-04-16 07:23 | 22.06102 | 120.47530 | 16901 ft | 393 kts | 168° |
| 2026-04-16 07:24 | 22.03438 | 120.48246 | 17472 ft | 396 kts | 168° |
| 2026-04-16 07:24 | 22.00751 | 120.48967 | 18021 ft | 400 kts | 168° |
| 2026-04-16 07:24 | 21.98038 | 120.49696 | 18525 ft | 403 kts | 168° |
| 2026-04-16 07:24 | 21.95301 | 120.50429 | 19021 ft | 406 kts | 168° |
| 2026-04-16 07:25 | 21.92549 | 120.51168 | 19525 ft | 409 kts | 168° |
| 2026-04-16 07:25 | 21.89813 | 120.51901 | 20017 ft | 412 kts | 168° |
| 2026-04-16 07:25 | 21.87018 | 120.52648 | 20499 ft | 416 kts | 168° |
| 2026-04-16 07:25 | 21.84203 | 120.53401 | 20987 ft | 419 kts | 168° |
| 2026-04-16 07:26 | 21.81368 | 120.54159 | 21467 ft | 421 kts | 168° |
| 2026-04-16 07:26 | 21.78513 | 120.54922 | 21944 ft | 424 kts | 168° |
| 2026-04-16 07:26 | 21.75642 | 120.55688 | 22410 ft | 427 kts | 168° |
| 2026-04-16 07:26 | 21.72753 | 120.56462 | 22862 ft | 429 kts | 168° |
| 2026-04-16 07:27 | 21.69885 | 120.57232 | 23300 ft | 432 kts | 168° |
| 2026-04-16 07:27 | 21.66961 | 120.58015 | 23688 ft | 434 kts | 168° |
| 2026-04-16 07:27 | 21.64018 | 120.58802 | 24038 ft | 437 kts | 168° |
| 2026-04-16 07:27 | 21.61063 | 120.59593 | 24388 ft | 439 kts | 168° |
| 2026-04-16 07:28 | 21.58086 | 120.60387 | 24728 ft | 442 kts | 168° |
| 2026-04-16 07:28 | 21.55093 | 120.61187 | 25045 ft | 444 kts | 168° |
| 2026-04-16 07:28 | 21.52083 | 120.61992 | 25377 ft | 447 kts | 168° |
| 2026-04-16 07:28 | 21.49062 | 120.62799 | 25701 ft | 449 kts | 168° |
| 2026-04-16 07:29 | 21.46022 | 120.63609 | 26023 ft | 451 kts | 168° |
| 2026-04-16 07:29 | 21.43008 | 120.64409 | 26333 ft | 453 kts | 169° |
| 2026-04-16 07:29 | 21.39939 | 120.65223 | 26646 ft | 456 kts | 169° |
| 2026-04-16 07:29 | 21.36853 | 120.66042 | 26953 ft | 458 kts | 169° |
| 2026-04-16 07:30 | 21.33755 | 120.66867 | 27250 ft | 460 kts | 169° |
| 2026-04-16 07:30 | 21.30643 | 120.67697 | 27561 ft | 462 kts | 169° |
| 2026-04-16 07:30 | 21.27515 | 120.68531 | 27851 ft | 464 kts | 169° |
| 2026-04-16 07:30 | 21.24374 | 120.69367 | 28142 ft | 466 kts | 169° |
| 2026-04-16 07:31 | 21.21224 | 120.70204 | 28427 ft | 468 kts | 169° |
| 2026-04-16 07:31 | 21.18059 | 120.71045 | 28694 ft | 470 kts | 169° |
| 2026-04-16 07:31 | 21.14877 | 120.71889 | 28955 ft | 472 kts | 169° |
| 2026-04-16 07:31 | 21.11729 | 120.72721 | 29205 ft | 473 kts | 169° |
| 2026-04-16 07:32 | 21.08529 | 120.73569 | 29455 ft | 475 kts | 169° |
| 2026-04-16 07:32 | 21.05312 | 120.74423 | 29702 ft | 477 kts | 169° |
| 2026-04-16 07:32 | 21.02078 | 120.75244 | 29932 ft | 477 kts | 173° |
| 2026-04-16 07:32 | 20.98791 | 120.75625 | 30115 ft | 475 kts | 181° |
| 2026-04-16 07:33 | 20.95504 | 120.75464 | 30355 ft | 472 kts | 187° |
| 2026-04-16 07:33 | 20.92238 | 120.75175 | 30629 ft | 470 kts | 187° |
| 2026-04-16 07:33 | 20.89022 | 120.74904 | 30901 ft | 469 kts | 187° |
| 2026-04-16 07:33 | 20.85772 | 120.74639 | 31190 ft | 468 kts | 187° |
| 2026-04-16 07:34 | 20.82525 | 120.74377 | 31473 ft | 467 kts | 187° |
| 2026-04-16 07:34 | 20.79553 | 120.74138 | 31741 ft | 466 kts | 187° |
| 2026-04-16 07:34 | 20.76325 | 120.73879 | 32037 ft | 464 kts | 187° |
| 2026-04-16 07:34 | 20.73109 | 120.73617 | 32336 ft | 463 kts | 187° |
| 2026-04-16 07:35 | 20.69905 | 120.73353 | 32617 ft | 462 kts | 187° |
| 2026-04-16 07:35 | 20.66701 | 120.73089 | 32897 ft | 461 kts | 187° |
| 2026-04-16 07:35 | 20.63503 | 120.72825 | 33192 ft | 460 kts | 187° |
| 2026-04-16 07:35 | 20.60361 | 120.72569 | 33489 ft | 459 kts | 187° |
| 2026-04-16 07:36 | 20.57178 | 120.72307 | 33788 ft | 458 kts | 187° |
| 2026-04-16 07:36 | 20.54004 | 120.72042 | 34072 ft | 457 kts | 187° |
| 2026-04-16 07:36 | 20.50842 | 120.71780 | 34335 ft | 456 kts | 187° |
| 2026-04-16 07:36 | 20.47682 | 120.71520 | 34595 ft | 455 kts | 187° |
| 2026-04-16 07:37 | 20.44529 | 120.71263 | 34848 ft | 454 kts | 187° |
| 2026-04-16 07:37 | 20.41381 | 120.71006 | 35072 ft | 453 kts | 187° |
| 2026-04-16 07:37 | 20.38239 | 120.70749 | 35305 ft | 453 kts | 187° |
| 2026-04-16 07:37 | 20.35097 | 120.70491 | 35525 ft | 452 kts | 187° |
| 2026-04-16 07:38 | 20.32004 | 120.70237 | 35727 ft | 452 kts | 187° |
| 2026-04-16 07:38 | 20.28865 | 120.69980 | 35869 ft | 452 kts | 187° |
| 2026-04-16 07:38 | 20.25728 | 120.69725 | 35904 ft | 452 kts | 187° |
| 2026-04-16 07:39 | 20.19467 | 120.69214 | 35907 ft | 451 kts | 187° |
| 2026-04-16 07:39 | 20.13212 | 120.68696 | 35898 ft | 451 kts | 187° |
| 2026-04-16 07:40 | 20.06949 | 120.68184 | 35903 ft | 452 kts | 187° |
| 2026-04-16 07:40 | 20.00719 | 120.67677 | 35902 ft | 452 kts | 187° |
| 2026-04-16 07:41 | 19.94448 | 120.67155 | 35904 ft | 452 kts | 187° |
| 2026-04-16 07:41 | 19.88179 | 120.66644 | 35901 ft | 452 kts | 187° |
| 2026-04-16 07:42 | 19.81901 | 120.66140 | 35900 ft | 453 kts | 187° |
| 2026-04-16 07:42 | 19.75661 | 120.65635 | 35904 ft | 453 kts | 187° |
| 2026-04-16 07:43 | 19.69380 | 120.65119 | 35908 ft | 453 kts | 187° |
| 2026-04-16 07:43 | 19.63094 | 120.64614 | 35905 ft | 453 kts | 187° |
| 2026-04-16 07:44 | 19.56809 | 120.64104 | 35906 ft | 453 kts | 187° |
| 2026-04-16 07:44 | 19.50565 | 120.63593 | 35898 ft | 453 kts | 187° |
| 2026-04-16 07:45 | 19.44278 | 120.63080 | 35896 ft | 453 kts | 187° |
| 2026-04-16 07:45 | 19.37990 | 120.62572 | 35897 ft | 453 kts | 187° |
| 2026-04-16 07:46 | 19.31707 | 120.62062 | 35900 ft | 453 kts | 187° |
| 2026-04-16 07:46 | 19.25463 | 120.61558 | 35904 ft | 453 kts | 187° |
| 2026-04-16 07:47 | 19.19175 | 120.61046 | 35900 ft | 453 kts | 187° |
| 2026-04-16 07:47 | 19.12885 | 120.60530 | 35899 ft | 453 kts | 187° |
| 2026-04-16 07:48 | 19.06598 | 120.60024 | 35900 ft | 453 kts | 187° |
| 2026-04-16 07:48 | 19.00347 | 120.59522 | 35906 ft | 453 kts | 187° |
| 2026-04-16 07:49 | 18.94056 | 120.59021 | 35890 ft | 454 kts | 186° |
| 2026-04-16 07:49 | 18.87760 | 120.58513 | 35890 ft | 454 kts | 186° |
| 2026-04-16 07:50 | 18.81463 | 120.58003 | 35891 ft | 454 kts | 187° |
| 2026-04-16 07:50 | 18.75202 | 120.57492 | 35894 ft | 454 kts | 186° |
| 2026-04-16 07:51 | 18.68900 | 120.56989 | 35891 ft | 454 kts | 186° |
| 2026-04-16 07:51 | 18.62591 | 120.56490 | 35891 ft | 455 kts | 186° |
| 2026-04-16 07:52 | 18.56281 | 120.55982 | 35894 ft | 455 kts | 186° |
| 2026-04-16 07:52 | 18.50013 | 120.55479 | 35890 ft | 455 kts | 186° |
| 2026-04-16 07:53 | 18.43700 | 120.54969 | 35891 ft | 455 kts | 186° |
| 2026-04-16 07:53 | 18.37386 | 120.54462 | 35887 ft | 455 kts | 186° |
| 2026-04-16 07:54 | 18.31069 | 120.53964 | 35886 ft | 455 kts | 186° |
| 2026-04-16 07:54 | 18.24751 | 120.53458 | 35905 ft | 455 kts | 186° |
| 2026-04-16 07:55 | 18.18470 | 120.52950 | 35906 ft | 456 kts | 186° |
| 2026-04-16 07:55 | 18.12166 | 120.52327 | 35905 ft | 455 kts | 188° |
| 2026-04-16 07:56 | 18.05883 | 120.51534 | 35903 ft | 455 kts | 189° |
| 2026-04-16 07:56 | 17.99600 | 120.50729 | 35899 ft | 455 kts | 188° |
| 2026-04-16 07:57 | 17.93360 | 120.49977 | 35894 ft | 455 kts | 188° |
| 2026-04-16 07:57 | 17.87070 | 120.49238 | 35891 ft | 455 kts | 188° |
| 2026-04-16 07:58 | 17.80773 | 120.48505 | 35887 ft | 455 kts | 188° |
| 2026-04-16 07:58 | 17.74479 | 120.47771 | 35891 ft | 455 kts | 188° |
| 2026-04-16 07:59 | 17.68222 | 120.47032 | 35895 ft | 455 kts | 188° |
| 2026-04-16 07:59 | 17.61923 | 120.46283 | 35896 ft | 455 kts | 188° |
| 2026-04-16 08:00 | 17.55625 | 120.45539 | 35901 ft | 456 kts | 188° |
| 2026-04-16 08:00 | 17.49319 | 120.44797 | 35905 ft | 456 kts | 188° |
| 2026-04-16 08:01 | 17.48297 | 120.44677 | 35906 ft | 456 kts | 188° |
| 2026-04-16 08:02 | 17.30789 | 120.42615 | 35919 ft | 456 kts | 188° |
| 2026-04-16 08:02 | 17.21339 | 120.41500 | 35916 ft | 455 kts | 188° |
| 2026-04-16 08:03 | 17.15041 | 120.40754 | 35909 ft | 456 kts | 188° |
| 2026-04-16 08:03 | 17.08782 | 120.40018 | 35916 ft | 456 kts | 188° |
| 2026-04-16 08:04 | 17.02473 | 120.39275 | 35912 ft | 456 kts | 188° |
| 2026-04-16 08:04 | 16.96154 | 120.38535 | 35913 ft | 457 kts | 188° |
| 2026-04-16 08:05 | 16.89834 | 120.37796 | 35914 ft | 458 kts | 188° |
| 2026-04-16 08:05 | 16.83545 | 120.37056 | 35920 ft | 458 kts | 188° |
| 2026-04-16 08:06 | 16.77214 | 120.36315 | 35925 ft | 458 kts | 188° |
| 2026-04-16 08:06 | 16.70635 | 120.36087 | 35927 ft | 460 kts | 174° |
| 2026-04-16 08:07 | 16.64279 | 120.36940 | 35918 ft | 460 kts | 174° |
| 2026-04-16 08:07 | 16.57928 | 120.37788 | 35916 ft | 460 kts | 174° |
| 2026-04-16 08:08 | 16.51613 | 120.38617 | 35908 ft | 461 kts | 174° |
| 2026-04-16 08:08 | 16.45252 | 120.39454 | 35912 ft | 461 kts | 175° |
| 2026-04-16 08:09 | 16.42071 | 120.39876 | 35922 ft | 461 kts | 174° |
| 2026-04-16 08:09 | 16.32535 | 120.41135 | 35914 ft | 460 kts | 175° |
| 2026-04-16 08:10 | 16.26220 | 120.41974 | 35901 ft | 461 kts | 174° |
| 2026-04-16 08:10 | 16.19863 | 120.42816 | 35901 ft | 461 kts | 174° |
| 2026-04-16 08:11 | 16.13502 | 120.43652 | 35905 ft | 461 kts | 175° |
| 2026-04-16 08:11 | 16.07139 | 120.44486 | 35907 ft | 461 kts | 174° |
| 2026-04-16 08:12 | 16.00814 | 120.45319 | 35894 ft | 461 kts | 174° |
| 2026-04-16 08:12 | 15.94450 | 120.46165 | 35899 ft | 461 kts | 175° |
| 2026-04-16 08:13 | 15.88082 | 120.47003 | 35893 ft | 461 kts | 174° |
| 2026-04-16 08:13 | 15.81712 | 120.47837 | 35890 ft | 462 kts | 174° |
| 2026-04-16 08:14 | 15.75385 | 120.48668 | 35889 ft | 461 kts | 175° |
| 2026-04-16 08:14 | 15.69016 | 120.49502 | 35884 ft | 461 kts | 174° |
| 2026-04-16 08:15 | 15.65846 | 120.49918 | 35172 ft | 458 kts | 174° |
| 2026-04-16 08:15 | 15.62660 | 120.50333 | 33475 ft | 467 kts | 174° |
| 2026-04-16 08:15 | 15.59409 | 120.50756 | 31596 ft | 475 kts | 174° |
| 2026-04-16 08:15 | 15.56122 | 120.51183 | 30288 ft | 473 kts | 174° |
| 2026-04-16 08:16 | 15.52933 | 120.51598 | 29934 ft | 447 kts | 174° |
| 2026-04-16 08:16 | 15.49946 | 120.52006 | 29682 ft | 423 kts | 171° |
| 2026-04-16 08:16 | 15.47149 | 120.52809 | 29042 ft | 412 kts | 159° |
| 2026-04-16 08:16 | 15.44665 | 120.54146 | 28287 ft | 406 kts | 146° |
| 2026-04-16 08:17 | 15.42384 | 120.55830 | 27480 ft | 400 kts | 145° |
| 2026-04-16 08:17 | 15.40140 | 120.57496 | 26722 ft | 394 kts | 144° |
| 2026-04-16 08:17 | 15.37920 | 120.59133 | 25977 ft | 388 kts | 144° |
| 2026-04-16 08:17 | 15.35736 | 120.60739 | 25243 ft | 383 kts | 144° |
| 2026-04-16 08:18 | 15.33581 | 120.62321 | 24520 ft | 377 kts | 143° |
| 2026-04-16 08:19 | 15.19204 | 120.72858 | 19214 ft | 351 kts | 143° |
| 2026-04-16 08:20 | 15.17225 | 120.74311 | 18489 ft | 348 kts | 143° |
| 2026-04-16 08:20 | 15.15256 | 120.75754 | 17770 ft | 345 kts | 143° |
| 2026-04-16 08:20 | 15.13307 | 120.77182 | 17052 ft | 341 kts | 143° |
| 2026-04-16 08:20 | 15.11386 | 120.78591 | 16481 ft | 335 kts | 143° |
| 2026-04-16 08:21 | 15.09498 | 120.79977 | 16011 ft | 331 kts | 143° |
| 2026-04-16 08:21 | 15.07653 | 120.81336 | 15547 ft | 330 kts | 140° |
| 2026-04-16 08:21 | 15.05991 | 120.82961 | 15167 ft | 327 kts | 130° |
| 2026-04-16 08:21 | 15.04462 | 120.84684 | 14863 ft | 323 kts | 130° |
| 2026-04-16 08:22 | 15.02938 | 120.86386 | 14518 ft | 322 kts | 130° |
| 2026-04-16 08:22 | 15.01424 | 120.88071 | 14266 ft | 317 kts | 130° |
| 2026-04-16 08:22 | 14.99905 | 120.89755 | 13560 ft | 327 kts | 131° |
| 2026-04-16 08:22 | 14.98361 | 120.91469 | 13280 ft | 322 kts | 131° |
| 2026-04-16 08:23 | 14.96848 | 120.93146 | 13029 ft | 315 kts | 130° |
| 2026-04-16 08:23 | 14.95371 | 120.94788 | 12775 ft | 309 kts | 130° |
| 2026-04-16 08:23 | 14.93937 | 120.96387 | 12531 ft | 306 kts | 130° |
| 2026-04-16 08:23 | 14.92495 | 120.97997 | 12290 ft | 304 kts | 130° |
| 2026-04-16 08:24 | 14.91056 | 120.99602 | 12047 ft | 304 kts | 130° |
| 2026-04-16 08:24 | 14.89792 | 121.01460 | 11804 ft | 328 kts | 112° |
| 2026-04-16 08:24 | 14.89296 | 121.03725 | 11582 ft | 319 kts | 90° |
| 2026-04-16 08:24 | 14.89323 | 121.05969 | 11461 ft | 306 kts | 87° |
| 2026-04-16 08:25 | 14.89401 | 121.08133 | 11283 ft | 298 kts | 87° |
| 2026-04-16 08:25 | 14.89483 | 121.10240 | 11135 ft | 288 kts | 87° |
| 2026-04-16 08:25 | 14.89563 | 121.12273 | 11014 ft | 278 kts | 86° |
| 2026-04-16 08:25 | 14.90000 | 121.14174 | 10823 ft | 271 kts | 63° |
| 2026-04-16 08:26 | 14.90928 | 121.15830 | 10499 ft | 269 kts | 57° |
| 2026-04-16 08:26 | 14.91939 | 121.17458 | 10176 ft | 269 kts | 57° |
| 2026-04-16 08:26 | 14.92956 | 121.19081 | 9842 ft | 269 kts | 57° |
| 2026-04-16 08:26 | 14.93975 | 121.20704 | 9469 ft | 269 kts | 57° |
| 2026-04-16 08:27 | 14.94993 | 121.22326 | 9128 ft | 268 kts | 57° |
| 2026-04-16 08:27 | 14.96001 | 121.23934 | 9004 ft | 266 kts | 57° |
| 2026-04-16 08:27 | 14.97011 | 121.25543 | 9011 ft | 268 kts | 57° |
| 2026-04-16 08:27 | 14.98027 | 121.27159 | 9013 ft | 268 kts | 57° |
| 2026-04-16 08:28 | 14.99029 | 121.28752 | 9010 ft | 268 kts | 57° |
| 2026-04-16 08:28 | 15.00043 | 121.30369 | 9020 ft | 268 kts | 57° |
| 2026-04-16 08:28 | 15.01056 | 121.31985 | 9021 ft | 268 kts | 57° |
| 2026-04-16 08:28 | 15.02061 | 121.33589 | 9017 ft | 260 kts | 57° |
| 2026-04-16 08:29 | 15.02927 | 121.35165 | 9013 ft | 247 kts | 72° |
| 2026-04-16 08:29 | 15.03093 | 121.36910 | 9024 ft | 245 kts | 94° |
| 2026-04-16 08:29 | 15.02925 | 121.38667 | 9022 ft | 245 kts | 96° |
| 2026-04-16 08:29 | 15.02699 | 121.40416 | 9019 ft | 245 kts | 101° |
| 2026-04-16 08:30 | 15.01976 | 121.41992 | 9024 ft | 246 kts | 130° |
| 2026-04-16 08:30 | 15.00785 | 121.43264 | 9027 ft | 247 kts | 136° |
| 2026-04-16 08:30 | 14.99545 | 121.44459 | 9026 ft | 247 kts | 137° |
| 2026-04-16 08:30 | 14.98280 | 121.45664 | 9027 ft | 247 kts | 137° |
| 2026-04-16 08:31 | 14.96864 | 121.46646 | 9026 ft | 247 kts | 159° |
| 2026-04-16 08:31 | 14.95209 | 121.47142 | 9031 ft | 248 kts | 166° |
| 2026-04-16 08:31 | 14.93530 | 121.47548 | 9028 ft | 248 kts | 167° |
| 2026-04-16 08:31 | 14.91847 | 121.47940 | 9011 ft | 248 kts | 167° |
| 2026-04-16 08:32 | 14.90169 | 121.48309 | 8716 ft | 246 kts | 173° |
| 2026-04-16 08:32 | 14.88473 | 121.48251 | 8375 ft | 244 kts | 187° |
| 2026-04-16 08:32 | 14.86791 | 121.48008 | 8038 ft | 243 kts | 189° |
| 2026-04-16 08:32 | 14.85219 | 121.47460 | 7854 ft | 238 kts | 212° |
| 2026-04-16 08:33 | 14.83831 | 121.46548 | 7739 ft | 240 kts | 213° |
| 2026-04-16 08:33 | 14.82425 | 121.45611 | 7619 ft | 240 kts | 213° |
| 2026-04-16 08:33 | 14.81021 | 121.44676 | 7499 ft | 240 kts | 213° |
| 2026-04-16 08:33 | 14.79622 | 121.43747 | 7382 ft | 239 kts | 213° |
| 2026-04-16 08:34 | 14.78226 | 121.42821 | 7278 ft | 238 kts | 213° |
| 2026-04-16 08:34 | 14.76835 | 121.41897 | 7222 ft | 237 kts | 213° |
| 2026-04-16 08:34 | 14.75443 | 121.40972 | 7219 ft | 238 kts | 213° |
| 2026-04-16 08:34 | 14.74049 | 121.40046 | 7218 ft | 238 kts | 213° |
| 2026-04-16 08:35 | 14.72660 | 121.39120 | 7223 ft | 238 kts | 214° |
| 2026-04-16 08:35 | 14.71354 | 121.38122 | 7217 ft | 236 kts | 224° |
| 2026-04-16 08:35 | 14.70267 | 121.36846 | 7116 ft | 236 kts | 236° |
| 2026-04-16 08:35 | 14.69431 | 121.35393 | 6998 ft | 235 kts | 240° |
| 2026-04-16 08:36 | 14.68618 | 121.33932 | 6882 ft | 234 kts | 241° |
| 2026-04-16 08:36 | 14.67807 | 121.32484 | 6762 ft | 232 kts | 240° |
| 2026-04-16 08:36 | 14.66979 | 121.31013 | 6352 ft | 244 kts | 241° |
| 2026-04-16 08:36 | 14.66119 | 121.29473 | 5719 ft | 249 kts | 241° |
| 2026-04-16 08:37 | 14.65273 | 121.27946 | 5311 ft | 240 kts | 240° |
| 2026-04-16 08:37 | 14.64463 | 121.26483 | 4992 ft | 229 kts | 240° |
| 2026-04-16 08:37 | 14.63699 | 121.25104 | 4715 ft | 220 kts | 240° |
| 2026-04-16 08:37 | 14.62954 | 121.23756 | 4427 ft | 212 kts | 238° |
| 2026-04-16 08:38 | 14.62238 | 121.22464 | 4160 ft | 204 kts | 238° |
| 2026-04-16 08:38 | 14.61543 | 121.21210 | 3905 ft | 200 kts | 238° |
| 2026-04-16 08:38 | 14.60854 | 121.19966 | 3655 ft | 200 kts | 237° |
| 2026-04-16 08:38 | 14.60162 | 121.18719 | 3388 ft | 200 kts | 237° |
| 2026-04-16 08:39 | 14.59474 | 121.17477 | 3141 ft | 199 kts | 238° |
| 2026-04-16 08:39 | 14.58787 | 121.16238 | 2884 ft | 199 kts | 237° |
| 2026-04-16 08:39 | 14.58102 | 121.15002 | 2628 ft | 197 kts | 238° |
| 2026-04-16 08:39 | 14.57440 | 121.13806 | 2415 ft | 192 kts | 238° |
| 2026-04-16 08:40 | 14.56801 | 121.12654 | 2129 ft | 176 kts | 237° |
| 2026-04-16 08:40 | 14.56224 | 121.11611 | 1931 ft | 160 kts | 238° |
| 2026-04-16 08:40 | 14.55688 | 121.10646 | 1730 ft | 150 kts | 237° |
| 2026-04-16 08:40 | 14.55174 | 121.09721 | 1544 ft | 147 kts | 237° |
| 2026-04-16 08:41 | 14.54672 | 121.08812 | 1377 ft | 145 kts | 238° |
| 2026-04-16 08:41 | 14.54170 | 121.07910 | 1163 ft | 146 kts | 238° |
| 2026-04-16 08:41 | 14.53671 | 121.07000 | 979 ft | 145 kts | 238° |
| 2026-04-16 08:41 | 14.53163 | 121.06094 | 801 ft | 145 kts | 239° |
| 2026-04-16 08:42 | 14.52668 | 121.05207 | 612 ft | 143 kts | 240° |
| 2026-04-16 08:42 | 14.52183 | 121.04331 | 470 ft | 138 kts | 240° |
| 2026-04-16 08:42 | 14.51705 | 121.03473 | 244 ft | 137 kts | 242° |
| 2026-04-16 08:42 | 14.51239 | 121.02624 | 70 ft | 131 kts | 240° |
| 2026-04-16 08:43 | 14.50861 | 121.01942 | 61 ft | 85 kts | 239° |
| 2026-04-16 08:43 | 14.50625 | 121.01519 | 63 ft | 53 kts | 240° |
| 2026-04-16 08:43 | 14.50534 | 121.01293 | 68 ft | 25 kts | 263° |
| 2026-04-16 08:43 | 14.50526 | 121.01183 | 63 ft | 12 kts | 284° |
| 2026-04-16 08:44 | 14.50585 | 121.01172 | 69 ft | 10 kts | 43° |